createdAt,value
2018-09-29T00:00:30.519Z,0
2018-09-29T00:01:10.852Z,0
2018-09-29T00:01:51.323Z,0
2018-09-29T00:02:31.651Z,0
2018-09-29T00:03:12.114Z,0
2018-09-29T00:03:52.550Z,0
2018-09-29T00:04:32.907Z,0
2018-09-29T00:05:13.351Z,0
2018-09-29T00:05:53.873Z,0
2018-09-29T00:06:34.231Z,0
2018-09-29T00:07:14.699Z,0
2018-09-29T00:07:55.502Z,0
2018-09-29T00:08:35.767Z,0
2018-09-29T00:09:16.225Z,0
2018-09-29T00:09:56.739Z,0
2018-09-29T00:10:37.112Z,0
2018-09-29T00:11:17.737Z,0
2018-09-29T00:11:58.152Z,0
2018-09-29T00:12:38.610Z,0
2018-09-29T00:13:18.988Z,0
2018-09-29T00:13:59.520Z,0
2018-09-29T00:14:39.956Z,0
2018-09-29T00:15:20.271Z,0
2018-09-29T00:16:00.769Z,0
2018-09-29T00:16:41.243Z,0
2018-09-29T00:17:21.540Z,0
2018-09-29T00:18:01.938Z,0
2018-09-29T00:18:42.854Z,0
2018-09-29T00:19:23.244Z,0
2018-09-29T00:20:03.594Z,0
2018-09-29T00:20:44.259Z,0
2018-09-29T00:21:25.138Z,0
2018-09-29T00:22:05.124Z,0
2018-09-29T00:22:45.624Z,0
2018-09-29T00:23:26.033Z,0
2018-09-29T00:24:06.545Z,0
2018-09-29T00:24:46.903Z,0
2018-09-29T00:25:28.164Z,0
2018-09-29T00:26:08.526Z,0
2018-09-29T00:26:49.998Z,0
2018-09-29T00:27:29.779Z,0
2018-09-29T00:28:10.309Z,0
2018-09-29T00:28:51.172Z,0
2018-09-29T00:29:31.551Z,0
2018-09-29T00:30:11.895Z,0
2018-09-29T00:30:52.808Z,0
2018-09-29T00:31:33.067Z,0
2018-09-29T00:32:13.541Z,0
2018-09-29T00:32:53.912Z,0
2018-09-29T00:33:34.355Z,0
2018-09-29T00:34:14.767Z,0
2018-09-29T00:34:55.131Z,0
2018-09-29T00:35:35.796Z,0
2018-09-29T00:36:15.968Z,0
2018-09-29T00:36:56.444Z,0
2018-09-29T00:37:36.881Z,0
2018-09-29T00:38:17.368Z,0
2018-09-29T00:38:57.719Z,0
2018-09-29T00:39:38.101Z,0
2018-09-29T00:40:18.504Z,0
2018-09-29T00:40:58.945Z,0
2018-09-29T00:41:39.414Z,0
2018-09-29T00:42:19.847Z,0
2018-09-29T00:43:00.221Z,0
2018-09-29T00:43:40.534Z,0
2018-09-29T00:44:21.042Z,0
2018-09-29T00:45:01.383Z,0
2018-09-29T00:45:41.846Z,0
2018-09-29T00:46:22.173Z,0
2018-09-29T00:47:02.571Z,0
2018-09-29T00:47:43.067Z,0
2018-09-29T00:48:23.447Z,0
2018-09-29T00:49:03.854Z,0
2018-09-29T00:51:40.167Z,0
2018-09-29T00:52:20.463Z,0
2018-09-29T00:53:00.840Z,0
2018-09-29T00:53:41.283Z,0
2018-09-29T00:54:21.651Z,0
2018-09-29T00:55:02.041Z,0
2018-09-29T00:55:42.491Z,0
2018-09-29T00:56:22.864Z,0
2018-09-29T00:57:03.477Z,0
2018-09-29T00:57:43.743Z,0
2018-09-29T00:58:24.120Z,0
2018-09-29T00:59:04.554Z,0
2018-09-29T00:59:44.896Z,0
2018-09-29T01:00:25.353Z,0
2018-09-29T01:01:05.796Z,0
2018-09-29T01:01:46.167Z,0
2018-09-29T01:02:26.731Z,0
2018-09-29T01:03:06.991Z,0
2018-09-29T01:03:47.371Z,0
2018-09-29T01:04:27.814Z,0
2018-09-29T01:05:08.219Z,0
2018-09-29T01:05:48.612Z,0
2018-09-29T01:06:28.956Z,0
2018-09-29T01:07:09.353Z,0
2018-09-29T01:07:49.733Z,0
2018-09-29T01:08:30.200Z,0
2018-09-29T01:09:10.640Z,0
2018-09-29T01:09:51.056Z,0
2018-09-29T01:10:31.388Z,0
2018-09-29T01:11:11.920Z,0
2018-09-29T01:11:52.273Z,0
2018-09-29T01:12:32.622Z,0
2018-09-29T01:13:13.009Z,0
2018-09-29T01:13:53.482Z,0
2018-09-29T01:14:33.936Z,0
2018-09-29T01:15:14.507Z,0
2018-09-29T01:15:54.949Z,0
2018-09-29T01:16:35.362Z,0
2018-09-29T01:17:15.936Z,0
2018-09-29T01:17:56.160Z,0
2018-09-29T01:18:36.556Z,0
2018-09-29T01:19:16.914Z,0
2018-09-29T01:19:57.404Z,0
2018-09-29T01:20:37.805Z,0
2018-09-29T01:21:18.250Z,0
2018-09-29T01:21:58.641Z,0
2018-09-29T01:22:39.078Z,0
2018-09-29T01:23:19.433Z,0
2018-09-29T01:23:59.831Z,0
2018-09-29T01:24:40.293Z,0
2018-09-29T01:25:20.649Z,0
2018-09-29T01:26:01.038Z,0
2018-09-29T01:26:41.564Z,0
2018-09-29T01:27:21.872Z,0
2018-09-29T01:28:02.280Z,0
2018-09-29T01:28:42.890Z,0
2018-09-29T01:29:23.136Z,0
2018-09-29T01:30:03.476Z,0
2018-09-29T01:30:43.991Z,0
2018-09-29T01:31:24.341Z,0
2018-09-29T01:32:04.712Z,0
2018-09-29T01:32:45.062Z,0
2018-09-29T01:33:25.549Z,0
2018-09-29T01:34:05.882Z,0
2018-09-29T01:34:46.510Z,0
2018-09-29T01:35:26.725Z,0
2018-09-29T01:36:07.221Z,0
2018-09-29T01:36:47.566Z,0
2018-09-29T01:37:27.959Z,0
2018-09-29T01:38:08.402Z,0
2018-09-29T01:38:48.766Z,0
2018-09-29T01:39:29.200Z,0
2018-09-29T01:40:09.586Z,0
2018-09-29T01:40:49.986Z,0
2018-09-29T01:41:30.361Z,0
2018-09-29T01:43:59.210Z,0
2018-09-29T01:44:39.570Z,0
2018-09-29T01:45:19.993Z,0
2018-09-29T01:46:00.411Z,0
2018-09-29T01:46:40.814Z,0
2018-09-29T01:47:21.238Z,0
2018-09-29T01:48:01.635Z,0
2018-09-29T01:48:42.048Z,0
2018-09-29T01:49:22.441Z,0
2018-09-29T01:52:00.612Z,0
2018-09-29T01:52:40.977Z,0
2018-09-29T01:53:21.357Z,0
2018-09-29T01:55:59.455Z,0
2018-09-29T01:56:39.597Z,0
2018-09-29T01:57:20.014Z,0
2018-09-29T01:58:00.381Z,0
2018-09-29T01:58:40.790Z,0
2018-09-29T01:59:21.238Z,0
2018-09-29T02:00:01.642Z,0
2018-09-29T02:00:42.042Z,0
2018-09-29T02:01:22.447Z,0
2018-09-29T02:02:02.878Z,0
2018-09-29T02:02:43.262Z,0
2018-09-29T02:03:23.676Z,0
2018-09-29T02:05:51.645Z,0
2018-09-29T02:06:31.741Z,0
2018-09-29T02:07:12.163Z,0
2018-09-29T02:07:52.575Z,0
2018-09-29T02:08:32.971Z,0
2018-09-29T02:09:13.424Z,0
2018-09-29T02:09:53.894Z,0
2018-09-29T02:10:34.254Z,0
2018-09-29T02:11:14.684Z,0
2018-09-29T02:11:55.053Z,0
2018-09-29T02:14:07.618Z,0
2018-09-29T02:14:48.010Z,0
2018-09-29T02:15:28.446Z,0
2018-09-29T02:16:08.802Z,0
2018-09-29T02:16:49.215Z,0
2018-09-29T02:17:29.631Z,0
2018-09-29T02:19:42.375Z,0
2018-09-29T02:20:22.508Z,0
2018-09-29T02:21:02.975Z,0
2018-09-29T02:21:43.357Z,0
2018-09-29T02:22:23.762Z,0
2018-09-29T02:23:04.148Z,0
2018-09-29T02:23:44.590Z,0
2018-09-29T02:24:25.006Z,0
2018-09-29T02:25:05.386Z,0
2018-09-29T02:25:45.860Z,0
2018-09-29T02:26:26.230Z,0
2018-09-29T02:27:06.586Z,0
2018-09-29T02:27:47.026Z,0
2018-09-29T02:28:27.421Z,0
2018-09-29T02:29:07.855Z,0
2018-09-29T02:29:48.292Z,0
2018-09-29T02:30:28.688Z,0
2018-09-29T02:31:09.107Z,0
2018-09-29T02:31:49.499Z,0
2018-09-29T02:32:29.910Z,0
2018-09-29T02:33:10.303Z,0
2018-09-29T02:33:50.719Z,0
2018-09-29T02:34:31.136Z,0
2018-09-29T02:35:11.534Z,0
2018-09-29T02:35:51.912Z,0
2018-09-29T02:36:32.325Z,0
2018-09-29T02:37:12.724Z,0
2018-09-29T02:37:53.162Z,0
2018-09-29T02:38:33.572Z,0
2018-09-29T02:39:13.997Z,0
2018-09-29T02:39:54.400Z,0
2018-09-29T02:40:34.772Z,0
2018-09-29T02:41:15.180Z,0
2018-09-29T02:41:55.581Z,0
2018-09-29T02:42:36.024Z,0
2018-09-29T02:45:03.921Z,0
2018-09-29T02:45:44.356Z,0
2018-09-29T02:46:24.729Z,0
2018-09-29T02:47:05.144Z,0
2018-09-29T02:47:45.541Z,0
2018-09-29T02:48:25.953Z,0
2018-09-29T02:49:06.382Z,0
2018-09-29T02:49:46.812Z,0
2018-09-29T02:50:27.307Z,0
2018-09-29T02:51:07.685Z,0
2018-09-29T02:53:41.515Z,0
2018-09-29T02:54:21.898Z,0
2018-09-29T02:55:02.310Z,0
2018-09-29T02:55:42.722Z,0
2018-09-29T02:56:23.134Z,0
2018-09-29T02:57:03.514Z,0
2018-09-29T02:57:43.893Z,0
2018-09-29T02:58:24.325Z,0
2018-09-29T02:59:04.703Z,0
2018-09-29T02:59:45.140Z,0
2018-09-29T03:00:25.518Z,0
2018-09-29T03:03:05.697Z,0
2018-09-29T03:03:46.078Z,0
2018-09-29T03:04:26.452Z,0
2018-09-29T03:05:06.874Z,0
2018-09-29T03:05:47.273Z,0
2018-09-29T03:08:03.083Z,0
2018-09-29T03:08:41.360Z,0
2018-09-29T03:09:21.776Z,0
2018-09-29T03:10:02.201Z,0
2018-09-29T03:10:42.548Z,0
2018-09-29T03:11:22.979Z,0
2018-09-29T03:12:03.407Z,0
2018-09-29T03:12:43.802Z,0
2018-09-29T03:13:24.205Z,0
2018-09-29T03:14:04.629Z,0
2018-09-29T03:14:45.041Z,0
2018-09-29T03:15:25.415Z,0
2018-09-29T03:17:38.608Z,0
2018-09-29T03:18:18.989Z,0
2018-09-29T03:18:59.436Z,0
2018-09-29T03:19:39.856Z,0
2018-09-29T03:20:20.296Z,0
2018-09-29T03:21:00.646Z,0
2018-09-29T03:21:41.058Z,0
2018-09-29T03:22:21.478Z,0
2018-09-29T03:23:01.960Z,0
2018-09-29T03:23:42.238Z,0
2018-09-29T03:26:20.207Z,0
2018-09-29T03:27:00.617Z,0
2018-09-29T03:27:41.025Z,0
2018-09-29T03:28:21.565Z,0
2018-09-29T03:29:01.852Z,0
2018-09-29T03:29:42.290Z,0
2018-09-29T03:30:22.746Z,0
2018-09-29T03:31:03.121Z,0
2018-09-29T03:31:43.586Z,0
2018-09-29T03:32:23.973Z,0
2018-09-29T03:33:04.358Z,0
2018-09-29T03:33:44.761Z,0
2018-09-29T03:35:58.386Z,0
2018-09-29T03:36:37.826Z,0
2018-09-29T03:37:18.229Z,0
2018-09-29T03:37:58.653Z,0
2018-09-29T03:40:27.732Z,0
2018-09-29T03:41:07.540Z,0
2018-09-29T03:41:47.993Z,0
2018-09-29T03:42:28.350Z,0
2018-09-29T03:43:08.750Z,0
2018-09-29T03:43:49.179Z,0
2018-09-29T03:44:29.630Z,0
2018-09-29T03:45:10.020Z,0
2018-09-29T03:45:50.467Z,0
2018-09-29T03:46:30.876Z,0
2018-09-29T03:47:11.238Z,0
2018-09-29T03:47:51.690Z,0
2018-09-29T03:48:32.079Z,0
2018-09-29T03:49:12.459Z,0
2018-09-29T03:49:52.894Z,0
2018-09-29T03:50:33.296Z,0
2018-09-29T03:51:13.712Z,0
2018-09-29T03:51:54.198Z,0
2018-09-29T03:52:34.624Z,0
2018-09-29T03:53:14.963Z,0
2018-09-29T03:53:55.490Z,0
2018-09-29T03:54:35.891Z,0
2018-09-29T03:55:16.382Z,0
2018-09-29T03:55:56.838Z,0
2018-09-29T03:56:37.100Z,0
2018-09-29T03:57:17.562Z,0
2018-09-29T03:57:57.898Z,0
2018-09-29T03:58:38.333Z,0
2018-09-29T03:59:18.758Z,0
2018-09-29T03:59:59.228Z,0
2018-09-29T04:00:39.587Z,0
2018-09-29T04:01:19.993Z,0
2018-09-29T04:02:00.436Z,0
2018-09-29T04:02:40.820Z,0
2018-09-29T04:03:21.245Z,0
2018-09-29T04:04:01.687Z,0
2018-09-29T04:04:42.052Z,0
2018-09-29T04:05:22.473Z,0
2018-09-29T04:08:01.756Z,0
2018-09-29T04:08:42.136Z,0
2018-09-29T04:09:22.545Z,0
2018-09-29T04:10:04.636Z,0
2018-09-29T04:10:45.072Z,0
2018-09-29T04:11:25.469Z,0
2018-09-29T04:12:05.902Z,0
2018-09-29T04:12:46.288Z,0
2018-09-29T04:13:26.784Z,0
2018-09-29T04:14:07.157Z,0
2018-09-29T04:14:47.627Z,0
2018-09-29T04:15:27.956Z,0
2018-09-29T04:16:08.352Z,0
2018-09-29T04:16:48.753Z,0
2018-09-29T04:17:29.146Z,0
2018-09-29T04:18:09.597Z,0
2018-09-29T04:18:49.982Z,0
2018-09-29T04:19:30.360Z,0
2018-09-29T04:20:10.756Z,0
2018-09-29T04:20:51.159Z,0
2018-09-29T04:21:31.565Z,0
2018-09-29T04:22:11.961Z,0
2018-09-29T04:24:43.980Z,0
2018-09-29T04:25:24.864Z,0
2018-09-29T04:26:05.287Z,0
2018-09-29T04:26:45.666Z,0
2018-09-29T05:08:31.882Z,0
2018-09-29T05:09:17.897Z,0
2018-09-29T05:09:58.218Z,0
2018-09-29T05:10:38.632Z,0
2018-09-29T05:11:19.028Z,0
2018-09-29T05:11:59.459Z,0
2018-09-29T05:12:39.868Z,0
2018-09-29T05:13:20.290Z,0
2018-09-29T05:14:00.761Z,0
2018-09-29T05:14:41.112Z,0
2018-09-29T05:15:21.489Z,0
2018-09-29T05:16:01.892Z,0
2018-09-29T05:16:42.278Z,0
2018-09-29T05:17:22.696Z,0
2018-09-29T05:18:03.065Z,0
2018-09-29T05:18:43.471Z,0
2018-09-29T05:19:23.923Z,0
2018-09-29T05:20:04.287Z,0
2018-09-29T05:20:44.717Z,0
2018-09-29T05:21:25.179Z,0
2018-09-29T05:22:05.544Z,0
2018-09-29T05:22:45.922Z,0
2018-09-29T05:24:59.762Z,0
2018-09-29T05:25:40.164Z,0
2018-09-29T05:26:20.527Z,0
2018-09-29T05:30:36.970Z,5
2018-09-29T05:31:15.378Z,5
2018-09-29T05:31:55.804Z,5
2018-09-29T05:32:36.174Z,5
2018-09-29T05:33:16.604Z,5
2018-09-29T05:33:57.008Z,5
2018-09-29T05:34:37.430Z,10
2018-09-29T05:35:17.823Z,10
2018-09-29T05:35:58.208Z,10
2018-09-29T05:36:38.634Z,10
2018-09-29T05:37:19.056Z,15
2018-09-29T05:37:59.434Z,10
2018-09-29T05:38:39.843Z,10
2018-09-29T05:39:20.260Z,15
2018-09-29T05:40:00.706Z,20
2018-09-29T05:40:41.085Z,20
2018-09-29T05:41:21.493Z,25
2018-09-29T05:42:01.937Z,35
2018-09-29T05:42:42.338Z,35
2018-09-29T05:43:22.728Z,40
2018-09-29T05:44:03.154Z,45
2018-09-29T05:44:43.607Z,45
2018-09-29T05:45:23.925Z,50
2018-09-29T05:46:04.385Z,50
2018-09-29T05:46:44.748Z,50
2018-09-29T05:47:25.171Z,50
2018-09-29T05:48:05.613Z,55
2018-09-29T05:48:45.983Z,55
2018-09-29T05:49:26.404Z,55
2018-09-29T05:50:06.783Z,55
2018-09-29T05:50:47.164Z,55
2018-09-29T05:51:27.558Z,50
2018-09-29T05:52:07.948Z,50
2018-09-29T05:52:48.400Z,50
2018-09-29T05:53:28.766Z,55
2018-09-29T05:54:09.198Z,55
2018-09-29T05:54:49.635Z,55
2018-09-29T05:55:29.968Z,65
2018-09-29T05:56:10.358Z,70
2018-09-29T05:56:50.773Z,75
2018-09-29T05:57:31.213Z,85
2018-09-29T05:58:11.628Z,90
2018-09-29T05:58:52.056Z,100
2018-09-29T05:59:32.455Z,105
2018-09-29T06:00:12.888Z,110
2018-09-29T06:00:53.244Z,115
2018-09-29T06:01:33.717Z,120
2018-09-29T06:04:13.852Z,110
2018-09-29T06:04:55.865Z,105
2018-09-29T06:05:36.404Z,105
2018-09-29T06:06:16.707Z,110
2018-09-29T06:06:57.138Z,115
2018-09-29T06:07:37.518Z,110
2018-09-29T06:08:17.866Z,110
2018-09-29T06:08:58.244Z,115
2018-09-29T06:09:38.672Z,125
2018-09-29T06:10:19.094Z,140
2018-09-29T06:10:59.490Z,160
2018-09-29T06:13:27.630Z,200
2018-09-29T06:14:08.044Z,220
2018-09-29T06:14:48.447Z,240
2018-09-29T06:15:28.885Z,255
2018-09-29T06:16:09.276Z,255
2018-09-29T06:16:49.701Z,255
2018-09-29T06:17:30.149Z,255
2018-09-29T06:18:10.533Z,260
2018-09-29T06:18:50.942Z,250
2018-09-29T06:19:31.334Z,235
2018-09-29T06:25:21.658Z,265
2018-09-29T06:26:01.759Z,275
2018-09-29T06:26:42.165Z,275
2018-09-29T06:27:22.596Z,270
2018-09-29T06:28:03.047Z,255
2018-09-29T06:28:46.025Z,260
2018-09-29T06:29:26.452Z,275
2018-09-29T06:30:06.834Z,305
2018-09-29T06:30:47.233Z,315
2018-09-29T06:31:27.676Z,310
2018-09-29T06:32:08.087Z,325
2018-09-29T06:32:48.496Z,355
2018-09-29T06:33:28.932Z,360
2018-09-29T06:34:09.421Z,350
2018-09-29T06:34:49.775Z,295
2018-09-29T06:35:30.172Z,220
2018-09-29T06:36:10.585Z,170
2018-09-29T06:36:50.993Z,150
2018-09-29T06:37:31.416Z,135
2018-09-29T06:38:11.836Z,130
2018-09-29T06:40:45.116Z,130
2018-09-29T06:41:26.044Z,130
2018-09-29T06:42:06.467Z,130
2018-09-29T06:42:46.914Z,130
2018-09-29T06:43:27.331Z,130
2018-09-29T06:44:07.727Z,130
2018-09-29T06:44:48.153Z,135
2018-09-29T06:45:28.716Z,140
2018-09-29T06:46:09.532Z,135
2018-09-29T06:46:49.956Z,125
2018-09-29T06:49:23.341Z,130
2018-09-29T06:50:03.526Z,130
2018-09-29T06:50:43.986Z,130
2018-09-29T06:51:24.364Z,130
2018-09-29T06:52:04.771Z,125
2018-09-29T06:55:26.254Z,130
2018-09-29T06:56:06.573Z,130
2018-09-29T06:56:46.963Z,130
2018-09-29T06:59:14.754Z,130
2018-09-29T06:59:55.139Z,130
2018-09-29T07:00:35.575Z,130
2018-09-29T07:01:15.991Z,130
2018-09-29T07:01:56.451Z,130
2018-09-29T07:02:36.870Z,130
2018-09-29T07:03:17.277Z,130
2018-09-29T07:03:57.685Z,130
2018-09-29T07:04:38.081Z,130
2018-09-29T07:05:18.492Z,130
2018-09-29T07:05:58.884Z,130
2018-09-29T07:06:39.287Z,130
2018-09-29T07:07:19.690Z,130
2018-09-29T07:08:00.083Z,130
2018-09-29T07:08:40.504Z,130
2018-09-29T07:09:20.957Z,125
2018-09-29T07:10:01.299Z,125
2018-09-29T07:10:41.714Z,125
2018-09-29T07:11:22.104Z,125
2018-09-29T07:12:02.498Z,125
2018-09-29T07:12:42.943Z,125
2018-09-29T07:13:23.308Z,125
2018-09-29T07:14:03.738Z,120
2018-09-29T07:14:44.164Z,120
2018-09-29T07:15:24.594Z,120
2018-09-29T07:16:04.984Z,115
2018-09-29T07:16:45.468Z,110
2018-09-29T07:17:25.864Z,110
2018-09-29T07:18:06.216Z,110
2018-09-29T07:20:39.208Z,105
2018-09-29T07:21:19.609Z,105
2018-09-29T07:21:59.995Z,105
2018-09-29T07:22:40.397Z,100
2018-09-29T07:23:20.788Z,95
2018-09-29T07:25:59.256Z,95
2018-09-29T07:26:39.670Z,90
2018-09-29T07:27:20.106Z,90
2018-09-29T07:28:00.512Z,90
2018-09-29T07:28:40.910Z,90
2018-09-29T07:29:21.372Z,90
2018-09-29T07:30:01.753Z,90
2018-09-29T07:30:42.166Z,90
2018-09-29T07:31:22.660Z,90
2018-09-29T07:32:03.052Z,90
2018-09-29T07:32:43.464Z,90
2018-09-29T07:33:23.880Z,90
2018-09-29T07:34:04.282Z,85
2018-09-29T07:39:25.550Z,85
2018-09-29T07:40:05.952Z,80
2018-09-29T07:40:46.355Z,80
2018-09-29T07:41:26.759Z,80
2018-09-29T07:42:07.163Z,80
2018-09-29T07:42:47.563Z,85
2018-09-29T07:43:27.993Z,80
2018-09-29T07:44:08.389Z,85
2018-09-29T07:44:48.759Z,85
2018-09-29T07:45:29.173Z,80
2018-09-29T07:46:09.585Z,80
2018-09-29T07:46:50.022Z,80
2018-09-29T07:47:30.401Z,80
2018-09-29T07:48:10.845Z,85
2018-09-29T07:48:51.260Z,85
2018-09-29T07:49:31.772Z,85
2018-09-29T07:50:12.309Z,85
2018-09-29T07:50:52.592Z,80
2018-09-29T07:51:32.982Z,85
2018-09-29T07:52:13.406Z,80
2018-09-29T07:52:53.824Z,80
2018-09-29T07:53:34.205Z,80
2018-09-29T07:54:14.591Z,80
2018-09-29T07:54:55.091Z,80
2018-09-29T07:55:35.410Z,80
2018-09-29T07:56:15.821Z,70
2018-09-29T07:56:56.196Z,65
2018-09-29T07:57:36.590Z,70
2018-09-29T07:58:17.033Z,80
2018-09-29T07:58:57.404Z,80
2018-09-29T07:59:37.814Z,80
2018-09-29T08:00:18.212Z,80
2018-09-29T08:00:58.627Z,80
2018-09-29T08:01:39.003Z,80
2018-09-29T08:02:19.433Z,80
2018-09-29T08:02:59.840Z,80
2018-09-29T08:03:40.262Z,75
2018-09-29T08:04:20.687Z,75
2018-09-29T08:05:01.760Z,75
2018-09-29T08:05:42.142Z,75
2018-09-29T08:06:22.586Z,75
2018-09-29T08:07:02.968Z,75
2018-09-29T08:07:43.645Z,70
2018-09-29T08:08:24.033Z,70
2018-09-29T08:09:04.424Z,70
2018-09-29T08:09:46.508Z,70
2018-09-29T08:10:26.921Z,70
2018-09-29T08:11:07.330Z,70
2018-09-29T08:11:47.739Z,70
2018-09-29T08:12:28.250Z,70
2018-09-29T08:13:08.530Z,70
2018-09-29T08:13:48.968Z,70
2018-09-29T08:14:29.408Z,70
2018-09-29T08:15:09.849Z,70
2018-09-29T08:15:50.277Z,75
2018-09-29T08:16:30.643Z,75
2018-09-29T08:17:11.078Z,75
2018-09-29T08:17:51.481Z,75
2018-09-29T08:18:31.884Z,75
2018-09-29T08:19:12.269Z,75
2018-09-29T08:19:52.657Z,75
2018-09-29T08:20:33.066Z,75
2018-09-29T08:21:13.460Z,70
2018-09-29T08:21:53.885Z,70
2018-09-29T08:31:45.581Z,70
2018-09-29T08:32:26.037Z,70
2018-09-29T08:33:06.377Z,70
2018-09-29T08:33:46.787Z,70
2018-09-29T08:34:27.201Z,70
2018-09-29T08:35:07.618Z,65
2018-09-29T08:35:48.035Z,65
2018-09-29T08:36:28.420Z,70
2018-09-29T08:37:08.858Z,70
2018-09-29T08:38:04.127Z,70
2018-09-29T08:38:44.528Z,70
2018-09-29T08:39:24.969Z,70
2018-09-29T08:40:05.424Z,70
2018-09-29T08:40:45.852Z,70
2018-09-29T08:41:26.255Z,70
2018-09-29T08:42:06.698Z,70
2018-09-29T08:42:47.093Z,70
2018-09-29T08:43:27.488Z,70
2018-09-29T08:44:07.920Z,65
2018-09-29T08:44:48.361Z,65
2018-09-29T08:45:28.743Z,65
2018-09-29T08:46:09.167Z,65
2018-09-29T08:46:49.641Z,65
2018-09-29T08:47:33.850Z,65
2018-09-29T08:48:14.099Z,65
2018-09-29T08:48:57.848Z,65
2018-09-29T08:50:34.608Z,65
2018-09-29T08:53:19.419Z,65
2018-09-29T08:53:58.804Z,65
2018-09-29T08:54:39.149Z,65
2018-09-29T08:55:19.547Z,65
2018-09-29T08:55:59.971Z,65
2018-09-29T08:56:40.477Z,65
2018-09-29T08:57:21.083Z,65
2018-09-29T08:58:01.490Z,65
2018-09-29T08:58:42.032Z,65
2018-09-29T08:59:22.398Z,65
2018-09-29T09:00:02.982Z,65
2018-09-29T09:00:43.393Z,65
2018-09-29T09:01:23.827Z,65
2018-09-29T09:02:04.500Z,65
2018-09-29T09:02:44.787Z,65
2018-09-29T09:03:25.362Z,65
2018-09-29T09:04:05.800Z,65
2018-09-29T09:04:46.151Z,65
2018-09-29T09:05:26.661Z,65
2018-09-29T09:06:07.252Z,65
2018-09-29T09:06:47.672Z,65
2018-09-29T09:07:28.815Z,65
2018-09-29T09:08:09.074Z,65
2018-09-29T09:08:49.484Z,65
2018-09-29T09:09:30.047Z,65
2018-09-29T09:10:10.308Z,65
2018-09-29T09:10:51.182Z,65
2018-09-29T09:13:04.540Z,65
2018-09-29T09:13:44.987Z,65
2018-09-29T09:14:25.383Z,65
2018-09-29T09:15:05.771Z,65
2018-09-29T09:15:46.180Z,65
2018-09-29T09:16:26.620Z,65
2018-09-29T09:17:07.051Z,65
2018-09-29T09:17:47.461Z,65
2018-09-29T09:18:27.827Z,65
2018-09-29T09:19:08.233Z,65
2018-09-29T09:19:48.625Z,65
2018-09-29T09:20:29.063Z,65
2018-09-29T09:21:09.442Z,65
2018-09-29T09:21:49.916Z,65
2018-09-29T09:22:30.350Z,65
2018-09-29T09:23:10.750Z,65
2018-09-29T09:23:51.286Z,65
2018-09-29T09:24:31.896Z,65
2018-09-29T09:25:12.348Z,65
2018-09-29T09:25:52.880Z,65
2018-09-29T09:28:31.533Z,65
2018-09-29T09:29:11.801Z,65
2018-09-29T09:29:52.270Z,65
2018-09-29T09:30:32.782Z,65
2018-09-29T09:31:14.056Z,65
2018-09-29T09:31:54.460Z,65
2018-09-29T09:32:35.004Z,65
2018-09-29T09:33:15.418Z,65
2018-09-29T09:33:55.996Z,65
2018-09-29T09:34:36.316Z,65
2018-09-29T09:35:16.748Z,65
2018-09-29T09:35:57.190Z,65
2018-09-29T09:36:37.635Z,60
2018-09-29T09:37:18.023Z,60
2018-09-29T09:37:58.360Z,60
2018-09-29T09:38:38.775Z,60
2018-09-29T09:39:19.208Z,60
2018-09-29T09:39:59.646Z,60
2018-09-29T09:40:40.107Z,60
2018-09-29T09:41:20.566Z,60
2018-09-29T09:42:01.009Z,60
2018-09-29T09:42:41.389Z,60
2018-09-29T09:43:21.868Z,65
2018-09-29T09:44:02.284Z,60
2018-09-29T09:44:42.762Z,65
2018-09-29T09:45:23.291Z,65
2018-09-29T09:46:03.734Z,65
2018-09-29T09:46:44.376Z,65
2018-09-29T09:47:24.549Z,65
2018-09-29T09:54:52.261Z,60
2018-09-29T09:55:32.542Z,60
2018-09-29T09:56:12.996Z,60
2018-09-29T09:56:53.540Z,60
2018-09-29T09:57:33.917Z,60
2018-09-29T09:58:14.394Z,60
2018-09-29T09:58:54.848Z,60
2018-09-29T09:59:35.162Z,60
2018-09-29T10:01:48.436Z,60
2018-09-29T10:02:29.580Z,60
2018-09-29T10:03:10.911Z,60
2018-09-29T10:03:52.109Z,55
2018-09-29T10:04:32.457Z,55
2018-09-29T10:05:12.833Z,55
2018-09-29T10:05:53.216Z,55
2018-09-29T10:09:42.427Z,60
2018-09-29T10:10:22.822Z,55
2018-09-29T10:11:03.459Z,55
2018-09-29T10:11:44.032Z,55
2018-09-29T10:12:24.386Z,55
2018-09-29T10:13:04.752Z,55
2018-09-29T10:13:45.185Z,55
2018-09-29T10:20:03.366Z,60
2018-09-29T10:20:43.705Z,55
2018-09-29T10:21:25.983Z,55
2018-09-29T10:22:06.431Z,60
2018-09-29T10:22:51.014Z,60
2018-09-29T10:23:31.400Z,60
2018-09-29T10:24:12.093Z,60
2018-09-29T10:24:52.419Z,60
2018-09-29T10:25:33.013Z,60
2018-09-29T10:26:13.473Z,60
2018-09-29T10:26:54.180Z,60
2018-09-29T11:07:41.890Z,55
2018-09-29T11:08:22.822Z,55
2018-09-29T11:09:03.343Z,55
2018-09-29T11:09:43.918Z,55
2018-09-29T11:10:24.334Z,55
2018-09-29T11:11:04.730Z,55
2018-09-29T11:11:45.172Z,55
2018-09-29T11:12:25.658Z,55
2018-09-29T11:16:00.332Z,55
2018-09-29T11:16:40.516Z,55
2018-09-29T11:17:21.102Z,55
2018-09-29T11:18:01.896Z,55
2018-09-29T11:18:42.669Z,55
2018-09-29T11:19:23.052Z,55
2018-09-29T11:20:03.496Z,55
2018-09-29T11:20:43.940Z,55
2018-09-29T11:21:24.258Z,55
2018-09-29T11:22:04.662Z,55
2018-09-29T11:22:47.880Z,55
2018-09-29T11:23:28.927Z,55
2018-09-29T11:24:09.797Z,55
2018-09-29T11:24:50.270Z,55
2018-09-29T11:25:30.674Z,50
2018-09-29T11:26:11.104Z,50
2018-09-29T11:26:51.579Z,50
2018-09-29T11:27:32.671Z,50
2018-09-29T11:28:13.261Z,50
2018-09-29T11:28:53.583Z,50
2018-09-29T11:29:34.216Z,50
2018-09-29T11:32:03.515Z,55
2018-09-29T11:32:43.009Z,55
2018-09-29T11:33:23.683Z,55
2018-09-29T11:34:04.098Z,55
2018-09-29T11:34:44.534Z,55
2018-09-29T11:35:25.005Z,55
2018-09-29T11:36:05.416Z,55
2018-09-29T11:36:45.847Z,55
2018-09-29T11:37:28.191Z,55
2018-09-29T11:38:08.643Z,55
2018-09-29T11:38:49.000Z,55
2018-09-29T11:41:19.750Z,55
2018-09-29T11:47:19.397Z,55
2018-09-29T11:47:59.928Z,55
2018-09-29T11:48:40.455Z,55
2018-09-29T11:49:20.874Z,55
2018-09-29T11:52:42.571Z,55
2018-09-29T11:53:22.874Z,55
2018-09-29T11:54:03.306Z,55
2018-09-29T11:54:43.660Z,55
2018-09-29T11:55:24.082Z,55
2018-09-29T11:56:04.542Z,55
2018-09-29T11:56:44.913Z,55
2018-09-29T11:57:25.636Z,50
2018-09-29T11:58:06.105Z,50
2018-09-29T11:58:46.499Z,50
2018-09-29T11:59:26.941Z,50
2018-09-29T12:00:07.457Z,50
2018-09-29T12:00:47.825Z,50
2018-09-29T12:01:28.190Z,50
2018-09-29T12:02:08.603Z,50
2018-09-29T12:02:49.018Z,50
2018-09-29T12:03:29.601Z,50
2018-09-29T12:04:09.836Z,50
2018-09-29T12:04:50.236Z,50
2018-09-29T12:05:30.660Z,50
2018-09-29T12:06:11.231Z,50
2018-09-29T12:06:51.617Z,50
2018-09-29T12:07:32.008Z,50
2018-09-29T12:08:12.393Z,50
2018-09-29T12:08:52.866Z,50
2018-09-29T12:09:33.268Z,50
2018-09-29T12:10:15.065Z,50
2018-09-29T12:10:55.479Z,50
2018-09-29T12:11:35.842Z,50
2018-09-29T12:12:16.343Z,50
2018-09-29T12:12:56.738Z,50
2018-09-29T12:13:37.525Z,50
2018-09-29T12:14:17.877Z,50
2018-09-29T12:14:58.310Z,50
2018-09-29T12:15:38.650Z,50
2018-09-29T12:16:19.588Z,50
2018-09-29T12:16:59.665Z,50
2018-09-29T12:17:40.116Z,50
2018-09-29T12:18:20.599Z,50
2018-09-29T12:19:00.985Z,50
2018-09-29T12:19:41.455Z,50
2018-09-29T12:20:21.785Z,50
2018-09-29T12:21:02.304Z,50
2018-09-29T12:21:42.622Z,50
2018-09-29T12:22:23.122Z,50
2018-09-29T12:23:03.564Z,50
2018-09-29T12:23:43.985Z,50
2018-09-29T12:27:55.227Z,50
2018-09-29T12:28:37.953Z,50
2018-09-29T12:33:48.465Z,50
2018-09-29T12:34:28.773Z,50
2018-09-29T12:35:09.202Z,50
2018-09-29T12:35:49.666Z,50
2018-09-29T12:36:30.002Z,50
2018-09-29T12:37:10.534Z,50
2018-09-29T12:37:50.825Z,50
2018-09-29T12:38:31.211Z,50
2018-09-29T12:39:11.583Z,50
2018-09-29T12:39:52.030Z,50
2018-09-29T12:40:32.435Z,50
2018-09-29T12:41:13.443Z,50
2018-09-29T12:41:53.874Z,50
2018-09-29T12:42:34.284Z,50
2018-09-29T12:43:14.651Z,50
2018-09-29T12:43:55.159Z,50
2018-09-29T12:44:35.618Z,50
2018-09-29T12:45:15.962Z,50
2018-09-29T12:45:56.718Z,50
2018-09-29T12:48:10.865Z,50
2018-09-29T12:48:51.411Z,50
2018-09-29T12:49:32.307Z,50
2018-09-29T12:50:13.117Z,50
2018-09-29T12:50:53.470Z,50
2018-09-29T12:51:59.850Z,50
2018-09-29T12:52:40.213Z,50
2018-09-29T12:53:20.731Z,50
2018-09-29T12:54:01.097Z,50
2018-09-29T12:54:41.552Z,50
2018-09-29T12:55:21.964Z,50
2018-09-29T12:56:02.433Z,50
2018-09-29T12:56:42.928Z,50
2018-09-29T12:57:23.396Z,50
2018-09-29T12:58:03.826Z,50
2018-09-29T12:58:44.223Z,50
2018-09-29T12:59:24.648Z,50
2018-09-29T13:00:05.048Z,50
2018-09-29T13:02:23.433Z,50
2018-09-29T13:03:03.866Z,50
2018-09-29T13:03:44.238Z,50
2018-09-29T13:04:24.656Z,50
2018-09-29T13:05:05.136Z,50
2018-09-29T13:05:45.521Z,50